Time;durP1;ratioP1;P1;durP2;ratioP2;P2;SDS_P1;SDS_P2;PMS_P1;PMS_P2;Temp;Humidity;BMP_temperature;BMP_pressure;BME280_temperature;BME280_humidity;BME280_pressure;Samples;Min_cycle;Max_cycle;Signal;HPM_P1;HPM_P2
2022/03/05 00:01:53;;;;;;;;;;;-0.80;99.90;;;-1.69;74.71;97396.59;4986135;28;19925;-44
2022/03/05 00:04:19;;;;;;;;;;;-0.80;99.90;;;-1.88;75.30;97360.19;4983586;28;20935;-42
2022/03/05 00:06:45;;;;;;;;;;;-0.80;99.90;;;-1.77;74.86;97387.03;4985582;28;19921;-41
2022/03/05 00:09:10;;;;;;;;;;;-0.80;99.90;;;-1.77;74.53;97388.75;4987716;28;19921;-38
2022/03/05 00:11:38;;;;;;;;;;;-0.90;99.90;;;-1.77;74.61;97389.63;4988618;28;19913;-45
2022/03/05 00:14:05;;;;;;;;;;;-0.90;99.90;;;-1.81;74.24;97390.44;4989140;28;19913;-44
2022/03/05 00:16:30;;;;;;;;;;;-0.90;99.90;;;-1.83;74.98;97392.16;4992725;28;19928;-44
2022/03/05 00:18:56;;;;;;;;;;;-0.90;99.90;;;-1.85;74.85;97392.97;4987953;28;19925;-40
2022/03/05 00:21:21;;;;;;;;;;;-1.00;99.90;;;-1.85;73.69;97395.53;4994864;28;19921;-37
2022/03/05 00:23:47;;;;;;;;;;;-1.00;99.90;;;-1.90;73.85;97392.94;4984555;28;20459;-40
2022/03/05 00:26:13;;;;;;;;;;;-1.00;99.90;;;-1.88;74.27;97393.81;4990740;28;19944;-41
2022/03/05 00:28:38;;;;;;;;;;;-1.00;99.90;;;-1.89;75.70;97396.38;4993685;28;19913;-39
2022/03/05 00:31:04;;;;;;;;;;;-1.00;99.90;;;-1.95;75.85;97399.75;4993875;28;19919;-40
2022/03/05 00:33:30;;;;;;;;;;;-1.00;99.90;;;-1.94;75.55;97398.88;5000608;28;20421;-40
2022/03/05 00:35:55;;;;;;;;;;;-1.00;99.90;;;-1.97;75.64;97394.56;4997543;28;19976;-43
2022/03/05 00:38:21;;;;;;;;;;;-1.10;99.90;;;-2.05;75.34;97385.81;4999638;28;20192;-36
2022/03/05 00:40:47;;;;;;;;;;;-1.10;99.90;;;-1.97;75.29;97391.97;4994739;28;21454;-47
2022/03/05 00:43:14;;;;;;;;;;;-1.10;99.90;;;-1.95;75.38;97399.75;4997350;28;19921;-38
2022/03/05 00:45:40;;;;;;;;;;;-1.10;99.90;;;-1.98;76.46;97397.97;4998260;28;19925;-41
2022/03/05 00:48:07;;;;;;;;;;;-1.10;99.90;;;-2.02;76.39;97400.53;4997264;28;20386;-44
2022/03/05 00:50:33;;;;;;;;;;;-1.20;99.90;;;-2.03;76.04;97397.03;4996162;28;19932;-44
2022/03/05 00:52:59;;;;;;;;;;;-1.20;99.90;;;-2.03;77.01;97396.19;4992619;28;19929;-41
2022/03/05 00:55:24;;;;;;;;;;;-1.20;99.90;;;-2.07;77.31;97391.84;4999021;28;19925;-40
2022/03/05 00:57:50;;;;;;;;;;;-1.20;99.90;;;-2.09;77.39;97398.72;4986204;28;20091;-44
2022/03/05 01:00:16;;;;;;;;;;;-1.20;99.90;;;-2.15;77.66;97391.75;4984470;28;19925;-44
2022/03/05 01:02:41;;;;;;;;;;;-1.20;99.90;;;-2.13;77.36;97392.63;4983301;28;19917;-43
2022/03/05 01:05:07;;;;;;;;;;;-1.30;99.90;;;-2.17;77.21;97393.41;4977830;28;19921;-44
2022/03/05 01:07:33;;;;;;;;;;;-1.30;99.90;;;-2.20;77.83;97394.25;4981449;28;19917;-44
2022/03/05 01:09:58;;;;;;;;;;;-1.30;99.90;;;-2.19;77.54;97389.94;4986820;28;20079;-43
2022/03/05 01:12:24;;;;;;;;;;;-1.30;99.90;;;-2.20;77.25;97389.09;4985335;28;20055;-45
2022/03/05 01:14:50;;;;;;;;;;;-1.30;99.90;;;-2.22;76.52;97382.19;4983773;28;19928;-42
2022/03/05 01:17:16;;;;;;;;;;;-1.40;99.90;;;-2.24;77.29;97386.44;4985588;28;19920;-43
2022/03/05 01:19:41;;;;;;;;;;;-1.40;99.90;;;-2.27;77.56;97384.69;4992466;28;19917;-47
2022/03/05 01:22:07;;;;;;;;;;;-1.40;99.90;;;-2.33;76.70;97375.16;4991191;28;19921;-36
2022/03/05 01:24:33;;;;;;;;;;;-1.40;99.90;;;-2.31;76.56;97382.94;4987351;28;19920;-40
2022/03/05 01:26:58;;;;;;;;;;;-1.40;99.90;;;-2.32;76.95;97378.59;4989732;28;19957;-44
2022/03/05 01:29:24;;;;;;;;;;;-1.40;99.90;;;-2.46;76.26;97349.13;4985268;28;19928;-41
2022/03/05 01:31:50;;;;;;;;;;;-1.40;99.90;;;-2.36;76.64;97377.69;4993522;28;20016;-44
2022/03/05 01:34:16;;;;;;;;;;;-1.50;99.90;;;-2.40;76.73;97378.50;5000476;28;21186;-42
2022/03/05 01:36:41;;;;;;;;;;;-1.50;99.90;;;-2.39;76.84;97376.78;5000912;28;19913;-41
2022/03/05 01:39:07;;;;;;;;;;;-1.50;99.90;;;-2.41;77.10;97375.88;4999958;28;20362;-45
2022/03/05 01:41:33;;;;;;;;;;;-1.50;99.90;;;-2.40;77.30;97372.47;5003166;28;19928;-45
2022/03/05 01:43:59;;;;;;;;;;;-1.50;99.90;;;-2.35;77.43;97376.84;4995937;28;19917;-45
2022/03/05 01:46:34;;;;;;;;;;;-1.50;99.90;;;-2.38;77.62;97373.34;4997434;28;19921;-45
2022/03/05 01:49:03;;;;;;;;;;;-1.50;99.90;;;-2.45;78.58;97369.81;4993370;28;19914;-42
2022/03/05 01:51:28;;;;;;;;;;;-1.60;99.90;;;-2.51;78.91;97380.06;5001494;28;19967;-42
2022/03/05 01:53:54;;;;;;;;;;;-1.60;99.90;;;-2.55;79.02;97379.16;4998107;28;19913;-43
2022/03/05 01:56:22;;;;;;;;;;;-1.60;99.90;;;-2.57;79.18;97378.25;4998036;28;19917;-39
2022/03/05 01:58:48;;;;;;;;;;;-1.70;99.90;;;-2.61;79.07;97381.63;4980090;28;20311;-40
2022/03/05 02:01:14;;;;;;;;;;;-1.70;99.90;;;-2.60;78.37;97373.06;4994404;28;19917;-40
2022/03/05 02:03:40;;;;;;;;;;;-1.70;99.90;;;-2.59;78.62;97368.75;4987230;28;20000;-42
2022/03/05 02:06:06;;;;;;;;;;;-1.70;99.90;;;-2.60;78.79;97367.91;4979534;28;20458;-39
2022/03/05 02:08:31;;;;;;;;;;;-1.70;99.90;;;-2.62;79.12;97369.59;4983686;28;19918;-39
2022/03/05 02:10:57;;;;;;;;;;;-1.70;99.90;;;-2.67;79.46;97360.00;4985247;28;21118;-44
2022/03/05 02:13:23;;;;;;;;;;;-1.70;99.90;;;-2.69;78.79;97360.88;4994850;28;19917;-45
2022/03/05 02:15:56;;;;;;;;;;;-1.70;99.90;;;-2.57;78.59;97367.91;4989349;28;20067;-42
2022/03/05 02:18:21;;;;;;;;;;;-1.70;99.90;;;-2.57;78.68;97370.50;4990495;28;20258;-45
2022/03/05 02:20:48;;;;;;;;;;;-1.70;99.90;;;-2.59;78.74;97366.16;4992127;28;19921;-48
2022/03/05 02:23:14;;;;;;;;;;;-1.70;99.90;;;-2.59;78.71;97376.50;4992825;28;19964;-44
2022/03/05 02:25:50;;;;;;;;;;;-1.70;99.90;;;-2.63;78.78;97373.00;4988772;28;20008;-45
2022/03/05 02:28:16;;;;;;;;;;;-1.70;99.90;;;-2.56;78.91;97372.25;4997187;28;20003;-44
2022/03/05 02:30:41;;;;;;;;;;;-1.70;99.90;;;-2.56;78.75;97379.13;4973547;28;19925;-42
2022/03/05 02:33:07;;;;;;;;;;;-1.70;99.90;;;-2.62;79.35;97376.44;4991654;28;19927;-40
2022/03/05 02:35:32;;;;;;;;;;;-1.70;99.90;;;-2.68;79.93;97374.66;4991703;28;19924;-41
2022/03/05 02:37:58;;;;;;;;;;;-1.70;99.90;;;-2.69;80.81;97378.94;4985146;28;20414;-37
2022/03/05 02:40:24;;;;;;;;;;;-1.80;99.90;;;-2.74;81.63;97377.16;4990461;28;20055;-43
2022/03/05 02:42:49;;;;;;;;;;;-1.80;99.90;;;-2.76;81.68;97376.25;4996429;28;19967;-40
2022/03/05 02:45:15;;;;;;;;;;;-1.80;99.90;;;-2.78;82.09;97377.94;4993082;28;19921;-44
2022/03/05 02:47:41;;;;;;;;;;;-1.90;99.90;;;-2.99;82.26;97347.53;4987416;28;20423;-41
2022/03/05 02:50:07;;;;;;;;;;;-1.90;99.90;;;-2.86;82.13;97379.53;4989696;28;20044;-42
2022/03/05 02:52:33;;;;;;;;;;;-1.90;99.90;;;-2.90;81.68;97365.72;4989716;28;19921;-42
2022/03/05 02:54:58;;;;;;;;;;;-2.00;99.90;;;-2.90;81.16;97371.75;4988303;28;19932;-41
2022/03/05 02:57:26;;;;;;;;;;;-2.00;99.90;;;-2.92;81.22;97368.28;4988651;28;19940;-43
2022/03/05 02:59:52;;;;;;;;;;;-2.00;99.90;;;-2.95;81.45;97370.78;4989043;28;19928;-40
2022/03/05 03:02:17;;;;;;;;;;;-2.00;99.90;;;-2.97;81.74;97369.91;4988987;28;19921;-46
2022/03/05 03:04:43;;;;;;;;;;;-2.00;99.90;;;-2.96;81.73;97366.50;4990072;28;20451;-43
2022/03/05 03:07:08;;;;;;;;;;;-2.00;99.90;;;-2.97;81.70;97363.88;4980658;28;19921;-40
2022/03/05 03:09:34;;;;;;;;;;;-2.10;99.90;;;-3.03;82.00;97368.94;4993214;28;20015;-39
2022/03/05 03:12:00;;;;;;;;;;;-2.10;99.90;;;-3.03;82.32;97368.94;4985806;28;20119;-38
2022/03/05 03:14:25;;;;;;;;;;;-2.10;99.90;;;-3.01;81.94;97375.88;4991312;28;20679;-45
2022/03/05 03:16:51;;;;;;;;;;;-2.10;99.90;;;-3.01;81.19;97375.88;4988764;28;20000;-40
2022/03/05 03:19:17;;;;;;;;;;;-2.10;99.90;;;-3.01;81.53;97375.88;4993639;28;19926;-43
2022/03/05 03:21:42;;;;;;;;;;;-2.10;99.90;;;-3.04;82.44;97370.66;4995548;28;19924;-45
2022/03/05 03:24:08;;;;;;;;;;;-2.10;99.90;;;-3.06;83.09;97382.66;4992162;28;20348;-43
2022/03/05 03:26:33;;;;;;;;;;;-2.10;99.90;;;-3.05;83.06;97374.09;4994678;28;20759;-43
2022/03/05 03:28:59;;;;;;;;;;;-2.10;99.90;;;-3.05;83.12;97379.25;4998734;28;20008;-42
2022/03/05 03:31:26;;;;;;;;;;;-2.10;99.90;;;-3.02;83.13;97388.75;5004694;28;20427;-43
2022/03/05 03:33:52;;;;;;;;;;;-2.10;99.90;;;-3.05;83.52;97387.00;4999573;28;19928;-40
2022/03/05 03:36:18;;;;;;;;;;;-2.10;99.90;;;-3.13;83.61;97380.81;5004315;28;19913;-42
2022/03/05 03:38:43;;;;;;;;;;;-2.20;99.90;;;-3.12;84.20;97387.75;5002469;28;19961;-38
2022/03/05 03:41:09;;;;;;;;;;;-2.20;99.90;;;-3.17;84.38;97385.06;5005797;28;19921;-44
2022/03/05 03:43:35;;;;;;;;;;;-2.20;99.90;;;-3.19;84.63;97380.75;5004384;28;21456;-45
2022/03/05 03:46:00;;;;;;;;;;;-2.30;99.90;;;-3.20;84.59;97384.16;5003272;28;19968;-42
2022/03/05 03:48:26;;;;;;;;;;;-2.30;99.90;;;-3.25;85.12;97386.63;5004890;28;19917;-43
2022/03/05 03:50:51;;;;;;;;;;;-2.30;99.90;;;-3.31;85.32;97384.81;5001875;28;19924;-45
2022/03/05 03:53:17;;;;;;;;;;;-2.40;99.90;;;-3.33;84.94;97389.09;5000929;28;19975;-45
2022/03/05 03:55:43;;;;;;;;;;;-2.40;99.90;;;-3.30;85.12;97393.44;5004657;28;19917;-43
2022/03/05 03:58:08;;;;;;;;;;;-2.40;99.90;;;-3.35;85.21;97390.78;5002339;28;20298;-43
2022/03/05 04:00:34;;;;;;;;;;;-2.40;99.90;;;-3.38;85.33;97395.88;4992217;28;20554;-43
2022/03/05 04:02:59;;;;;;;;;;;-2.50;99.90;;;-3.36;84.98;97390.75;4986746;28;19944;-43
2022/03/05 04:05:25;;;;;;;;;;;-2.50;99.90;;;-3.40;85.24;97387.25;4988258;28;20059;-44
2022/03/05 04:10:35;;;;;;;;;;;-2.40;99.90;;;-3.44;85.17;97395.78;4989911;28;20667;-41
2022/03/05 04:13:01;;;;;;;;;;;-2.50;99.90;;;-3.40;85.67;97391.53;4983688;28;19921;-41
2022/03/05 04:15:26;;;;;;;;;;;-2.50;99.90;;;-3.43;85.50;97392.34;4988998;28;19921;-45
2022/03/05 04:17:52;;;;;;;;;;;-2.50;99.90;;;-3.42;85.40;97391.50;4986076;28;19988;-42
2022/03/05 04:20:18;;;;;;;;;;;-2.50;99.90;;;-3.40;85.56;97389.81;4990722;28;19932;-40
2022/03/05 04:22:43;;;;;;;;;;;-2.50;99.90;;;-3.46;85.91;97384.56;4994270;28;20004;-42
2022/03/05 04:25:10;;;;;;;;;;;-2.50;99.90;;;-3.46;86.80;97397.47;4986850;28;20052;-42
2022/03/05 04:27:35;;;;;;;;;;;-2.50;99.90;;;-3.49;87.25;97387.94;4989956;28;21280;-44
2022/03/05 04:30:01;;;;;;;;;;;-2.60;99.90;;;-3.55;86.41;97382.69;4987921;28;20024;-40
2022/03/05 04:32:27;;;;;;;;;;;-2.50;99.90;;;-3.51;86.50;97401.66;4992125;28;20395;-44
2022/03/05 04:34:53;;;;;;;;;;;-2.60;99.90;;;-3.53;87.21;97400.78;4987739;28;19913;-44
2022/03/05 04:37:18;;;;;;;;;;;-2.60;99.90;;;-3.55;87.37;97392.13;4984928;28;20349;-46
2022/03/05 04:39:44;;;;;;;;;;;-2.60;99.90;;;-3.52;87.34;97394.75;4988564;28;19925;-44
2022/03/05 04:42:09;;;;;;;;;;;-2.60;99.90;;;-3.53;87.50;97395.63;4988258;28;20887;-46
2022/03/05 04:44:35;;;;;;;;;;;-2.60;99.90;;;-3.55;87.85;97402.44;4990431;28;19913;-45
2022/03/05 04:47:01;;;;;;;;;;;-2.60;99.90;;;-3.61;88.72;97400.59;4991691;28;19963;-46
2022/03/05 04:49:26;;;;;;;;;;;-2.60;99.90;;;-3.63;89.09;97404.00;4988369;28;19921;-41
2022/03/05 04:51:52;;;;;;;;;;;-2.60;99.90;;;-3.62;89.34;97400.56;4991366;28;19953;-47
2022/03/05 04:54:18;;;;;;;;;;;-2.60;99.90;;;-3.62;89.74;97400.56;4992638;28;19921;-43
2022/03/05 04:56:43;;;;;;;;;;;-2.60;99.90;;;-3.63;90.23;97396.28;4991676;28;19913;-40
2022/03/05 04:59:09;;;;;;;;;;;-2.60;99.90;;;-3.68;90.17;97406.50;4987055;28;20015;-47
2022/03/05 05:01:35;;;;;;;;;;;-2.70;99.90;;;-3.70;90.66;97401.31;4987637;28;19972;-45
2022/03/05 05:04:01;;;;;;;;;;;-2.70;99.90;;;-3.67;90.72;97410.81;4985486;28;19917;-40
2022/03/05 05:06:26;;;;;;;;;;;-2.70;99.90;;;-3.68;90.23;97404.81;4966519;28;19936;-40
2022/03/05 05:08:52;;;;;;;;;;;-2.70;99.90;;;-3.64;89.58;97410.88;4986855;28;19914;-41
2022/03/05 05:11:18;;;;;;;;;;;-2.70;99.90;;;-3.60;89.12;97419.53;4988089;28;19960;-46
2022/03/05 05:13:43;;;;;;;;;;;-2.70;99.90;;;-3.55;89.17;97417.91;4987641;28;19921;-47
2022/03/05 05:16:10;;;;;;;;;;;-2.60;99.90;;;-3.55;88.72;97420.47;4982979;28;19925;-42
2022/03/05 05:18:36;;;;;;;;;;;-2.60;99.90;;;-3.60;89.38;97411.81;4996245;28;19998;-48
2022/03/05 05:21:01;;;;;;;;;;;-2.70;99.90;;;-3.59;89.70;97416.97;4997192;28;20024;-46
2022/03/05 05:23:27;;;;;;;;;;;-2.70;99.90;;;-3.65;90.16;97410.00;4987022;28;19923;-43
2022/03/05 05:25:53;;;;;;;;;;;-2.70;99.90;;;-3.64;90.51;97421.19;4986318;28;19948;-46
2022/03/05 05:28:18;;;;;;;;;;;-2.70;99.90;;;-3.68;90.91;97412.53;4997483;28;19919;-46
2022/03/05 05:30:44;;;;;;;;;;;-2.70;99.90;;;-3.70;91.00;97421.91;4996207;28;20028;-47
2022/03/05 05:33:09;;;;;;;;;;;-2.70;99.90;;;-3.72;91.55;97426.19;4999044;28;19956;-45
2022/03/05 05:35:35;;;;;;;;;;;-2.80;99.90;;;-3.76;91.87;97424.38;4999580;28;20002;-43
2022/03/05 05:38:01;;;;;;;;;;;-2.80;99.90;;;-3.75;92.04;97425.25;5001176;28;20422;-48
2022/03/05 05:40:26;;;;;;;;;;;-2.80;99.90;;;-3.76;92.08;97423.53;5002701;28;20349;-48
2022/03/05 05:42:52;;;;;;;;;;;-2.80;99.90;;;-3.77;92.44;97426.94;5008398;28;19944;-44
2022/03/05 05:45:18;;;;;;;;;;;-2.80;99.90;;;-3.78;91.75;97431.22;5005177;28;19920;-49
2022/03/05 05:47:43;;;;;;;;;;;-2.80;99.90;;;-3.79;92.02;97436.34;4999642;28;19967;-47
2022/03/05 05:50:09;;;;;;;;;;;-2.90;99.90;;;-3.84;92.32;97436.25;5001330;28;19952;-44
2022/03/05 05:52:35;;;;;;;;;;;-2.90;99.90;;;-3.85;92.61;97443.13;5002907;28;19968;-42
2022/03/05 05:55:00;;;;;;;;;;;-2.90;99.90;;;-3.91;93.09;97442.09;5001282;28;19921;-39
2022/03/05 05:57:26;;;;;;;;;;;-2.90;99.90;;;-3.92;93.26;97445.53;4999167;28;20426;-44
2022/03/05 05:59:52;;;;;;;;;;;-2.90;99.90;;;-3.95;93.41;97448.03;5002898;28;22048;-45
2022/03/05 06:02:17;;;;;;;;;;;-2.90;99.90;;;-3.95;93.25;97448.91;5003351;28;19921;-46
2022/03/05 06:04:43;;;;;;;;;;;-2.90;99.90;;;-3.96;93.32;97447.19;4999341;28;19928;-43
2022/03/05 06:07:09;;;;;;;;;;;-2.90;99.90;;;-3.99;92.83;97438.53;4991077;28;19921;-41
2022/03/05 06:09:34;;;;;;;;;;;-3.00;99.90;;;-3.94;92.76;97455.81;5000917;28;20027;-45
2022/03/05 06:12:00;;;;;;;;;;;-3.00;99.90;;;-3.94;92.99;97455.81;4995296;28;19913;-41
2022/03/05 06:14:26;;;;;;;;;;;-2.90;99.90;;;-3.93;92.47;97456.66;4997161;28;20000;-43
2022/03/05 06:16:51;;;;;;;;;;;-2.90;99.90;;;-3.92;92.69;97455.84;4995924;28;20374;-45
2022/03/05 06:19:17;;;;;;;;;;;-2.90;99.90;;;-3.93;93.02;97460.13;4999038;28;19925;-43
2022/03/05 06:21:43;;;;;;;;;;;-2.90;99.90;;;-3.94;93.15;97454.94;4997553;28;19960;-43
2022/03/05 06:24:08;;;;;;;;;;;-2.90;99.90;;;-3.90;93.09;97464.47;4994378;28;19952;-43
2022/03/05 06:26:35;;;;;;;;;;;-2.90;99.90;;;-3.91;92.93;97471.34;4997096;28;19913;-45
2022/03/05 06:29:00;;;;;;;;;;;-2.90;99.90;;;-3.87;92.74;97477.44;5011398;28;19917;-43
2022/03/05 06:31:26;;;;;;;;;;;-2.80;99.90;;;-3.84;93.07;97468.06;5011674;28;19932;-45
2022/03/05 06:33:51;;;;;;;;;;;-2.80;99.90;;;-3.80;93.06;97476.72;5007841;28;19913;-40
2022/03/05 06:36:17;;;;;;;;;;;-2.80;99.90;;;-3.78;92.73;97472.47;5014120;28;20216;-46
2022/03/05 06:38:43;;;;;;;;;;;-2.80;99.90;;;-3.74;92.62;97478.56;5007375;28;19925;-44
2022/03/05 06:41:08;;;;;;;;;;;-2.70;99.90;;;-3.72;92.06;97485.47;5010132;28;19917;-45
2022/03/05 06:43:34;;;;;;;;;;;-2.70;99.90;;;-3.68;91.86;97494.13;5000798;28;20024;-45
2022/03/05 06:46:00;;;;;;;;;;;-2.70;99.90;;;-3.66;91.11;97490.75;4993890;28;20566;-43
2022/03/05 06:48:27;;;;;;;;;;;-2.60;99.90;;;-3.62;91.24;97496.84;4998418;28;20317;-44
2022/03/05 06:50:53;;;;;;;;;;;-2.60;99.90;;;-3.58;90.91;97501.22;4998956;28;20370;-41
2022/03/05 06:53:18;;;;;;;;;;;-2.60;99.90;;;-3.51;90.89;97502.22;4992339;28;19920;-43
2022/03/05 06:55:44;;;;;;;;;;;-2.50;99.90;;;-3.46;90.81;97506.63;4989668;28;19924;-37
2022/03/05 06:58:10;;;;;;;;;;;-2.40;99.90;;;-3.40;90.65;97505.88;4994022;28;19921;-46
2022/03/05 07:00:35;;;;;;;;;;;-2.40;99.90;;;-3.38;90.59;97493.88;4994159;28;20015;-38
2022/03/05 07:03:02;;;;;;;;;;;-2.30;99.90;;;-3.24;90.78;97501.03;4997197;28;20250;-41
2022/03/05 07:05:27;;;;;;;;;;;-2.30;99.90;;;-3.20;90.62;97510.53;4992317;28;19913;-46
2022/03/05 07:07:53;;;;;;;;;;;-2.20;99.90;;;-3.17;90.31;97500.28;4997033;28;19936;-41
2022/03/05 07:10:19;;;;;;;;;;;-2.20;99.90;;;-3.11;89.40;97511.56;4990474;28;20273;-40
2022/03/05 07:12:44;;;;;;;;;;;-2.10;99.90;;;-3.05;88.69;97509.94;4992876;28;19913;-43
2022/03/05 07:15:10;;;;;;;;;;;-2.00;99.90;;;-2.97;88.57;97516.13;4982821;28;20386;-43
2022/03/05 07:17:36;;;;;;;;;;;-2.00;99.90;;;-2.95;88.60;97512.72;4989658;28;19921;-41
2022/03/05 07:20:03;;;;;;;;;;;-1.90;99.90;;;-2.84;88.36;97515.50;4992168;28;20389;-47
2022/03/05 07:22:28;;;;;;;;;;;-1.80;99.90;;;-2.77;88.18;97514.78;4989589;28;19921;-43
2022/03/05 07:24:54;;;;;;;;;;;-1.80;99.90;;;-2.69;87.91;97512.34;4993204;28;20407;-43
2022/03/05 07:27:19;;;;;;;;;;;-1.70;99.90;;;-2.66;88.10;97509.78;4993758;28;19921;-41
2022/03/05 07:29:46;;;;;;;;;;;-1.70;99.90;;;-2.64;87.97;97510.69;4997306;28;20398;-42
2022/03/05 07:32:12;;;;;;;;;;;-1.60;99.90;;;-2.62;87.45;97514.19;4999694;28;19923;-42
2022/03/05 07:34:38;;;;;;;;;;;-1.60;99.90;;;-2.52;87.30;97512.59;5000017;28;19922;-45
2022/03/05 07:37:03;;;;;;;;;;;-1.50;99.90;;;-2.57;87.24;97509.94;5000125;28;19928;-45
2022/03/05 07:39:29;;;;;;;;;;;-1.50;99.90;;;-2.48;87.25;97516.09;5005213;28;19936;-43
2022/03/05 07:41:55;;;;;;;;;;;-1.40;99.90;;;-2.40;87.15;97520.56;5004871;28;20394;-45
2022/03/05 07:44:20;;;;;;;;;;;-1.40;99.90;;;-2.31;87.35;97514.66;5008546;28;19917;-44
2022/03/05 07:46:46;;;;;;;;;;;-1.30;99.90;;;-2.24;87.04;97507.88;5007499;28;19921;-43
2022/03/05 07:49:12;;;;;;;;;;;-1.30;99.90;;;-2.18;86.38;97508.84;5012190;28;20413;-43
2022/03/05 07:51:38;;;;;;;;;;;-1.20;99.90;;;-2.21;86.01;97500.16;5006849;28;19956;-45
2022/03/05 07:54:04;;;;;;;;;;;-1.10;99.90;;;-2.07;85.73;97515.88;5008964;28;20367;-40
2022/03/05 07:56:29;;;;;;;;;;;-1.00;99.90;;;-1.99;85.47;97516.84;5007287;28;20004;-44
2022/03/05 07:58:55;;;;;;;;;;;-1.00;99.90;;;-1.92;85.31;97518.66;5010691;28;20055;-44
2022/03/05 08:01:21;;;;;;;;;;;-0.90;99.90;;;-1.82;85.20;97514.53;5009244;28;19941;-43
2022/03/05 08:03:46;;;;;;;;;;;-0.80;99.90;;;-1.69;84.68;97507.78;5006833;28;19913;-44
2022/03/05 08:06:12;;;;;;;;;;;-0.70;99.90;;;-1.56;83.89;97504.53;5007442;28;19940;-39
2022/03/05 08:08:38;;;;;;;;;;;-0.60;99.90;;;-1.49;83.81;97508.94;5009018;28;19932;-44
2022/03/05 08:11:04;;;;;;;;;;;-0.50;99.90;;;-1.29;82.92;97516.03;5010104;28;19913;-44
2022/03/05 08:13:30;;;;;;;;;;;-0.40;99.90;;;-1.28;82.64;97513.47;5003956;28;20023;-44
2022/03/05 08:15:56;;;;;;;;;;;-0.30;99.90;;;-1.04;81.19;97507.72;5008400;28;19919;-46
2022/03/05 08:18:22;;;;;;;;;;;-0.10;99.90;;;-1.01;80.25;97492.19;5017560;23;19929;-45
2022/03/05 08:20:47;;;;;;;;;;;0.10;99.90;;;-0.73;80.18;97517.50;4997328;28;19921;-41
2022/03/05 08:23:13;;;;;;;;;;;0.20;99.90;;;-0.71;80.11;97519.25;4994492;28;20695;-43
2022/03/05 08:25:39;;;;;;;;;;;0.30;99.90;;;-0.57;79.21;97524.56;4998741;28;19920;-38
2022/03/05 08:28:04;;;;;;;;;;;0.40;99.90;;;-0.45;78.15;97522.09;4999026;28;19933;-38
2022/03/05 08:30:30;;;;;;;;;;;0.50;99.90;;;-0.36;78.18;97520.41;4997058;28;19952;-45
2022/03/05 08:32:55;;;;;;;;;;;0.60;99.90;;;-0.28;78.18;97519.63;4997220;28;19913;-43
2022/03/05 08:35:21;;;;;;;;;;;0.70;99.90;;;-0.15;77.28;97532.69;4996288;28;20374;-38
2022/03/05 08:37:48;;;;;;;;;;;0.80;99.90;;;0.25;74.11;97532.94;4997794;28;20039;-39
2022/03/05 08:40:14;;;;;;;;;;;1.00;99.90;;;0.18;74.49;97527.72;4996722;28;20446;-44
2022/03/05 08:42:41;;;;;;;;;;;1.10;99.90;;;0.21;74.64;97519.09;4977606;28;19928;-44
2022/03/05 08:45:08;;;;;;;;;;;1.20;99.90;;;0.31;74.97;97527.81;4995353;28;19970;-38
2022/03/05 08:47:34;;;;;;;;;;;1.30;99.90;;;0.48;73.88;97531.34;4993100;28;20012;-46
2022/03/05 08:50:00;;;;;;;;;;;1.40;99.90;;;0.60;71.44;97519.28;4991723;28;19922;-42
2022/03/05 08:52:28;;;;;;;;;;;1.40;99.90;;;0.66;71.60;97511.53;4995457;28;19917;-39
2022/03/05 08:54:55;;;;;;;;;;;1.50;99.90;;;0.88;71.42;97523.72;4994771;28;19921;-42
2022/03/05 08:57:20;;;;;;;;;;;1.70;99.90;;;0.98;70.75;97514.22;4992205;28;20051;-40
2022/03/05 08:59:46;;;;;;;;;;;1.80;99.90;;;1.22;69.54;97525.53;4995455;28;20363;-42
2022/03/05 09:02:11;;;;;;;;;;;2.00;99.90;;;1.27;68.29;97514.28;4956919;28;20077;-35
2022/03/05 09:04:37;;;;;;;;;;;2.10;99.90;;;1.44;66.69;97529.06;4993897;28;22527;-46
2022/03/05 09:07:03;;;;;;;;;;;2.20;99.90;;;1.44;66.55;97521.25;4997386;28;19917;-37
2022/03/05 09:09:29;;;;;;;;;;;2.30;99.90;;;1.46;67.45;97515.19;4993759;28;19924;-38
2022/03/05 09:11:54;;;;;;;;;;;2.30;99.90;;;1.67;65.83;97522.16;4997777;28;19913;-38
2022/03/05 09:14:20;;;;;;;;;;;2.40;99.90;;;1.68;65.59;97505.66;4990490;28;19917;-37
2022/03/05 09:16:45;;;;;;;;;;;2.50;99.90;;;1.94;65.03;97507.41;4992355;28;19959;-37
2022/03/05 09:19:11;;;;;;;;;;;2.60;99.90;;;1.97;65.33;97512.56;4993264;28;19932;-38
2022/03/05 09:21:37;;;;;;;;;;;2.80;99.90;;;1.96;65.28;97502.19;4988906;28;19921;-38
2022/03/05 09:24:04;;;;;;;;;;;2.80;99.90;;;2.00;64.54;97511.72;4991251;28;20169;-38
2022/03/05 09:26:29;;;;;;;;;;;2.80;99.90;;;2.03;63.45;97504.78;4992429;28;20372;-37
2022/03/05 09:28:55;;;;;;;;;;;2.90;99.90;;;2.01;64.42;97498.72;4991020;28;19929;-37
2022/03/05 09:31:20;;;;;;;;;;;2.90;99.90;;;2.01;65.09;97496.13;4993144;28;19976;-34
2022/03/05 09:33:46;;;;;;;;;;;2.90;99.90;;;2.17;64.34;97503.88;4991379;28;20048;-37
2022/03/05 09:36:12;;;;;;;;;;;3.00;99.90;;;2.18;61.53;97484.81;4989202;28;20345;-36
2022/03/05 09:38:37;;;;;;;;;;;3.00;99.90;;;2.33;60.50;97499.50;4993421;28;20507;-38
2022/03/05 09:41:05;;;;;;;;;;;3.10;99.90;;;2.32;60.91;97496.06;4990928;28;19944;-37
2022/03/05 09:43:31;;;;;;;;;;;3.20;99.90;;;2.52;59.27;97497.72;4992019;28;19906;-36
2022/03/05 09:45:58;;;;;;;;;;;3.20;99.90;;;2.78;57.23;97498.50;4992350;28;19917;-35
2022/03/05 09:48:26;;;;;;;;;;;3.30;99.70;;;2.78;56.46;97501.09;4991062;28;19968;-35
2022/03/05 09:50:52;;;;;;;;;;;3.50;98.70;;;2.76;55.64;97494.16;4986319;28;19929;-36
2022/03/05 09:53:20;;;;;;;;;;;3.50;98.10;;;2.80;56.60;97495.84;4990394;28;21679;-37
2022/03/05 09:55:48;;;;;;;;;;;3.60;98.50;;;2.97;54.04;97494.03;4975233;28;19945;-37
2022/03/05 09:58:14;;;;;;;;;;;3.60;97.20;;;2.93;55.64;97497.56;4995190;28;19918;-37
2022/03/05 10:00:39;;;;;;;;;;;3.70;97.70;;;3.10;55.33;97471.38;4988953;28;20069;-36
2022/03/05 10:03:06;;;;;;;;;;;3.80;97.90;;;3.15;56.00;97503.50;4972827;28;19917;-39
2022/03/05 10:05:32;;;;;;;;;;;3.90;98.10;;;3.30;54.59;97491.25;4992792;28;19914;-41
2022/03/05 10:08:15;;;;;;;;;;;3.90;97.30;;;3.15;55.34;97502.66;4974243;28;20384;-36
2022/03/05 10:10:46;;;;;;;;;;;4.00;97.30;;;3.20;55.53;97503.50;4988736;28;19913;-38
2022/03/05 10:13:30;;;;;;;;;;;4.00;97.40;;;3.25;54.73;97494.75;4992531;28;20145;-36
2022/03/05 10:15:59;;;;;;;;;;;4.00;97.20;;;3.07;52.92;97494.88;4986798;28;19977;-36
2022/03/05 10:18:35;;;;;;;;;;;3.90;95.70;;;2.86;53.53;97490.63;4989593;28;19913;-38
2022/03/05 10:21:04;;;;;;;;;;;3.70;95.70;;;2.85;52.96;97494.09;4987636;28;20320;-35
2022/03/05 10:23:38;;;;;;;;;;;3.60;95.60;;;2.88;53.73;97499.31;4986039;28;19945;-36
2022/03/05 10:26:08;;;;;;;;;;;3.50;96.00;;;2.64;54.97;97495.09;4982398;28;19921;-37
2022/03/05 10:28:34;;;;;;;;;;;3.40;96.60;;;2.79;54.79;97494.16;4989057;28;19921;-36
2022/03/05 10:31:04;;;;;;;;;;;3.40;96.70;;;2.73;54.86;97492.44;4996501;28;20342;-38
2022/03/05 10:33:40;;;;;;;;;;;3.40;96.40;;;2.69;55.67;97480.28;4995698;28;20086;-35
2022/03/05 10:36:20;;;;;;;;;;;3.50;96.60;;;2.82;55.29;97483.72;4990818;28;20233;-38
2022/03/05 10:39:04;;;;;;;;;;;3.50;96.80;;;2.93;53.32;97491.47;4996499;28;20001;-39
2022/03/05 10:41:33;;;;;;;;;;;3.60;96.60;;;2.93;53.26;97489.75;4997352;28;19925;-38
2022/03/05 10:44:06;;;;;;;;;;;3.70;95.60;;;3.04;53.36;97481.84;4996880;28;19931;-38
2022/03/05 10:46:43;;;;;;;;;;;3.70;95.60;;;3.08;53.75;97467.06;4996826;28;19917;-37
2022/03/05 10:49:19;;;;;;;;;;;3.90;95.60;;;3.37;51.66;97487.72;5000202;28;20588;-38
2022/03/05 10:52:06;;;;;;;;;;;4.00;94.90;;;3.23;51.87;97482.59;5000113;28;19917;-36
2022/03/05 10:54:40;;;;;;;;;;;4.00;94.50;;;3.23;51.49;97482.59;4996573;28;19913;-37
2022/03/05 10:57:13;;;;;;;;;;;4.00;94.30;;;3.22;52.23;97473.91;4997688;28;19928;-36
2022/03/05 10:59:41;;;;;;;;;;;3.90;94.50;;;3.45;50.48;97475.50;4992154;28;19933;-39
2022/03/05 11:02:08;;;;;;;;;;;4.10;93.80;;;3.37;50.81;97472.09;4987279;28;19936;-39
2022/03/05 11:04:35;;;;;;;;;;;4.10;93.70;;;3.37;51.48;97477.28;4990364;28;19921;-35
2022/03/05 11:07:02;;;;;;;;;;;4.10;94.00;;;3.31;51.38;97477.34;4986938;28;20409;-38
2022/03/05 11:09:29;;;;;;;;;;;4.10;94.00;;;3.39;51.82;97476.44;4992777;28;19924;-36
2022/03/05 11:11:55;;;;;;;;;;;4.20;94.10;;;3.45;51.15;97472.91;4989196;28;19984;-38
2022/03/05 11:14:20;;;;;;;;;;;4.20;93.80;;;3.64;49.89;97476.22;4972483;28;19928;-38
2022/03/05 11:16:46;;;;;;;;;;;4.30;93.10;;;3.60;49.94;97475.38;4978184;28;19964;-39
2022/03/05 11:19:14;;;;;;;;;;;4.40;92.80;;;3.85;49.48;97477.78;4985551;28;19921;-37
2022/03/05 11:21:39;;;;;;;;;;;4.50;92.80;;;3.94;49.12;97476.84;4988793;28;20050;-38